Sunset View, California
Current Conditions -  °F | °C
As of 1:00 PM on Friday 19 Dec 2014 (Local Time) from KGOO Reporting Station
Overcast Overcast  
Wind Chill: 37°   Ceiling: 4600
Heat Index: 43°   Visibility: 8mi
Dew Point: 43°   Wind: 10mph
Humidity: 100%   Direction: 130°SE
Pressure: 30.14"   Gusts: NA
Location:  39.2183°N, 120.924°W
Report Text: KGOO 192100Z AUTO 13009KT 8SM FEW001 BKN046 OVC090 06/06 A3014 RMK AO1 P0001
Loading
Personal Weather Stations






























Interactive Weather Map New forecast layout! Learn more

10-Day Weather Forecast

Advertisements
Track Severe Weather on mobile